Latest Coastal Weather Observations for Cape Naturaliste

IDW60701

Issued at 2:43 pm WST Friday 30 September 2016 (issued every 10 minutes, with the page automatically refreshed every 10 minutes)

About coastal observations | Map of coastal stations | Coastal observations for WA | Marine services | Other Formats
Station Details ID: 009519 Name: CAPE NATURALISTE Lat: -33.54 Lon: 115.02 Height: 109.0 m
Data from the previous 72 hours. | See also: Recent months at Cape Naturaliste
Date/Time
WST
Temp
°C
Wind Pressure Rain since
9am
mm
Weather Cloud Vis
km
Sea
Height
m
Swell
Dir  Spd
kts
Gust
kts
hPa Trend Height
m
Period
s
Dir
30/02:32pm 13.3 W 24 35 1004.2 - 0.6 - - - - - - -
30/02:30pm 13.6 W 24 31 1004.1 - 0.6 - - - - - - -
30/02:05pm 14.4 W 25 35 1004.3 - 0.2 - - - - - - -
30/02:00pm 14.0 W 26 33 1004.3 - 0.0 - - - - - - -
30/01:30pm 15.8 WNW 24 33 1004.3 - 0.0 - - - - - - -
30/01:16pm 15.6 W 24 34 1004.4 - 0.0 - - - - - - -
30/01:00pm 16.4 WNW 23 29 1004.6 - 0.0 - - - - - - -
30/12:30pm 17.0 W 23 29 1004.9 - 0.0 - - - - - - -
30/12:00pm 16.5 W 26 35 1005.0 - 0.0 - - - - - - -
30/11:42am 16.9 W 23 33 1005.1 - 0.0 - - - - - - -
30/11:30am 16.7 W 25 33 1005.1 - 0.0 - - - - - - -
30/11:00am 15.9 W 24 31 1005.4 - 0.0 - - - - - - -
30/10:47am 14.9 W 23 33 1005.5 - 0.0 - - - - - - -
30/10:30am 16.2 W 24 31 1005.5 - 0.0 - - - - - - -
30/10:00am 14.7 W 24 32 1005.4 - 0.0 - - - - - - -
30/09:30am 15.0 W 24 32 1005.6 - 0.0 - - - - - - -
30/09:00am 15.2 W 24 29 1005.7 - 0.2 - - - - - - -
30/08:30am 14.2 W 21 29 1005.7 - 0.2 - - - - - - -
30/08:00am 12.7 W 23 29 1005.7 - 0.2 - - - - - - -
30/07:30am 12.6 WNW 23 29 1005.5 - 0.2 - - - - - - -
30/07:00am 13.3 NW 24 31 1005.3 - 0.0 - - - - - - -
30/06:48am 13.6 NW 24 34 1005.3 - 0.0 - - - - - - -
30/06:30am 14.0 NW 21 28 1005.4 - 0.0 - - - - - - -
30/06:00am 13.7 NW 20 27 1005.5 - 0.0 - - - - - - -
30/05:30am 13.5 NW 20 28 1005.7 - 0.0 - - - - - - -
30/05:00am 13.1 NW 17 23 1006.0 - 0.0 - - - - - - -
30/04:30am 12.8 NW 18 24 1006.4 - 0.0 - - - - - - -
30/04:00am 12.7 NW 17 23 1006.9 - 0.0 - - - - - - -
30/03:30am 13.1 NW 17 23 1007.7 - 0.0 - - - - - - -
30/03:00am 12.8 WNW 15 20 1008.1 - 0.0 - - - - - - -
30/02:30am 12.9 WNW 17 24 1008.9 - 0.0 - - - - - - -
30/02:00am 12.7 WNW 16 21 1009.1 - 0.0 - - - - - - -
30/01:30am 12.8 WNW 13 19 1009.5 - 0.0 - - - - - - -
30/01:00am 12.8 NW 14 18 1009.6 - 0.0 - - - - - - -
30/12:30am 12.5 WNW 11 17 1010.1 - 0.0 - - - - - - -
30/12:00am 12.4 NW 10 13 1010.3 - 0.0 - - - - - - -
 
Date/Time
WST
Temp
°C
Wind Pressure Rain since
9am
mm
Weather Cloud Vis
km
Sea
Height
m
Swell
Dir  Spd
kts
Gust
kts
hPa Trend Height
m
Period
s
Dir
29/11:30pm 12.2 NW 10 14 1010.9 - 0.0 - - - - - - -
29/11:00pm 12.2 NW 11 14 1011.4 - 0.0 - - - - - - -
29/10:30pm 12.7 W 15 21 1012.1 - 0.0 - - - - - - -
29/10:00pm 12.9 WNW 17 22 1012.9 - 0.0 - - - - - - -
29/09:30pm 12.5 W 15 20 1013.4 - 0.0 - - - - - - -
29/09:00pm 12.5 WNW 13 16 1013.6 - 0.0 - - - - - - -
29/08:30pm 12.5 W 13 18 1013.9 - 0.0 - - - - - - -
29/08:00pm 12.5 W 12 15 1014.2 - 0.0 - - - - - - -
29/07:30pm 12.4 WSW 12 14 1014.2 - 0.0 - - - - - - -
29/07:00pm 12.5 WSW 12 15 1014.1 - 0.0 - - - - - - -
29/06:30pm 12.7 WSW 11 14 1014.2 - 0.0 - - - - - - -
29/06:00pm 13.3 NNW 12 16 1014.3 - 0.0 - - - - - - -
29/05:30pm 13.5 N 14 19 1014.1 - 0.0 - - - - - - -
29/05:00pm 13.5 N 12 17 1014.3 - 0.0 - - - - - - -
29/04:30pm 13.9 N 13 17 1014.7 - 0.0 - - - - - - -
29/04:00pm 14.1 N 13 19 1014.9 - 0.0 - - - - - - -
29/03:30pm 14.2 N 14 19 1015.2 - 0.0 - - - - - - -
29/03:00pm 14.3 N 16 20 1015.5 - 0.0 - - - - - - -
29/02:30pm 13.5 NNE 17 21 1016.1 - 0.0 - - - - - - -
29/02:00pm 12.9 NNE 14 19 1016.8 - 0.0 - - - - - - -
29/01:30pm 13.4 NNE 16 20 1017.3 - 0.0 - - - - - - -
29/01:00pm 12.9 NNE 14 19 1018.1 - 0.0 - - - - - - -
29/12:30pm 14.0 NNE 14 18 1018.7 - 0.0 - - - - - - -
29/12:00pm 12.2 NNE 13 18 1019.2 - 0.0 - - - - - - -
29/11:30am 11.8 NNE 13 16 1019.7 - 0.0 - - - - - - -
29/11:00am 12.0 NNE 13 17 1019.9 - 0.0 - - - - - - -
29/10:30am 12.3 NE 13 16 1020.2 - 0.0 - - - - - - -
29/10:00am 12.8 NE 11 16 1020.6 - 0.0 - - - - - - -
29/09:30am 11.5 NE 11 16 1021.1 - 0.0 - - - - - - -
29/09:00am 12.1 NE 10 14 1021.5 - 0.0 - - - - - - -
29/08:30am 11.4 NE 10 13 1021.4 - 0.0 - - - - - - -
29/08:00am 10.9 NE 9 12 1021.4 - 0.0 - - - - - - -
29/07:30am 10.2 NE 10 15 1021.5 - 0.0 - - - - - - -
29/07:00am 10.2 NE 11 14 1021.5 - 0.0 - - - - - - -
29/06:30am 8.5 ENE 11 15 1021.4 - 0.0 - - - - - - -
29/06:00am 7.9 ENE 12 17 1021.3 - 0.0 - - - - - - -
29/05:30am 7.7 ENE 11 14 1021.5 - 0.0 - - - - - - -
29/05:00am 7.6 ENE 11 14 1021.7 - 0.0 - - - - - - -
29/04:30am 7.6 ENE 13 17 1021.3 - 0.0 - - - - - - -
29/04:00am 7.3 E 13 18 1021.2 - 0.0 - - - - - - -
29/03:30am 6.4 ESE 12 15 1021.2 - 0.0 - - - - - - -
29/03:00am 5.9 ESE 12 15 1021.4 - 0.0 - - - - - - -
29/02:30am 5.7 ESE 12 14 1021.5 - 0.0 - - - - - - -
29/02:00am 5.8 ESE 11 13 1021.9 - 0.0 - - - - - - -
29/01:30am 6.0 SE 11 13 1022.2 - 0.0 - - - - - - -
29/01:00am 5.6 SE 11 12 1022.5 - 0.0 - - - - - - -
29/12:30am 6.1 SE 11 13 1022.7 - 0.0 - - - - - - -
29/12:00am 6.4 SE 11 13 1023.1 - 0.0 - - - - - - -
 
Date/Time
WST
Temp
°C
Wind Pressure Rain since
9am
mm
Weather Cloud Vis
km
Sea
Height
m
Swell
Dir  Spd
kts
Gust
kts
hPa Trend Height
m
Period
s
Dir
28/11:30pm 6.8 SE 11 13 1023.4 - 0.0 - - - - - - -
28/11:00pm 7.0 SE 12 14 1023.5 - 0.0 - - - - - - -
28/10:30pm 6.8 SE 11 14 1023.8 - 0.0 - - - - - - -
28/10:00pm 7.0 SE 11 13 1023.9 - 0.0 - - - - - - -
28/09:30pm 7.3 SSE 11 14 1024.0 - 0.0 - - - - - - -
28/09:00pm 7.7 SSE 11 14 1024.1 - 0.0 - - - - - - -
28/08:30pm 7.7 SSE 10 13 1024.0 - 0.0 - - - - - - -
28/08:00pm 8.0 S 11 13 1024.1 - 0.0 - - - - - - -
28/07:30pm 8.2 S 11 13 1024.1 - 0.0 - - - - - - -
28/07:00pm 8.2 S 10 12 1023.8 - 0.0 - - - - - - -
28/06:30pm 9.0 SSE 11 14 1023.7 - 0.0 - - - - - - -
28/06:00pm 10.4 S 9 11 1023.4 - 0.0 - - - - - - -
28/05:30pm 11.3 SSE 6 9 1023.2 - 0.0 - - - - - - -
28/05:00pm 12.1 SSE 10 14 1023.1 - 0.0 - - - - - - -
28/04:30pm 12.3 SSE 11 17 1022.8 - 0.0 - - - - - - -
28/04:00pm 13.6 S 12 18 1022.7 - 0.0 - - - - - - -
28/03:30pm 13.3 SSW 16 24 1022.8 - 0.0 - - - - - - -
28/03:00pm 13.1 SSW 15 21 1023.0 - 0.0 - - - - - - -
28/02:30pm 13.3 SSW 18 23 1022.9 - 0.0 - - - - - - -
28/02:00pm 13.3 SSW 17 24 1023.0 - 0.0 - - - - - - -
28/01:30pm 13.3 SSW 16 23 1023.1 - 0.0 - - - - - - -
28/01:00pm 13.3 SSW 16 22 1023.3 - 0.0 - - - - - - -
28/12:30pm 13.9 SSW 16 22 1023.6 - 0.0 - - - - - - -
28/12:00pm 13.2 SSW 18 23 1023.4 - 0.0 - - - - - - -
28/11:30am 13.5 SSW 15 23 1023.6 - 0.0 - - - - - - -
28/11:00am 13.6 S 14 22 1023.8 - 0.0 - - - - - - -
28/10:30am 12.3 SSW 17 23 1023.7 - 0.0 - - - - - - -
28/10:00am 12.2 SSW 13 19 1023.5 - 0.0 - - - - - - -
28/09:30am 12.1 S 14 21 1023.5 - 0.0 - - - - - - -
28/09:00am 12.4 S 14 19 1023.4 - 3.0 - - - - - - -
28/08:30am 11.7 S 11 16 1023.1 - 3.0 - - - - - - -
28/08:00am 9.3 S 15 23 1022.6 - 3.0 - - - - - - -
28/07:30am 8.9 S 14 20 1021.9 - 3.0 - - - - - - -
28/07:00am 9.4 SSE 11 16 1021.6 - 3.0 - - - - - - -
28/06:30am 7.9 S 13 17 1020.8 - 3.0 - - - - - - -
28/06:00am 8.0 S 13 19 1020.5 - 3.0 - - - - - - -
28/05:30am 8.1 S 15 23 1020.1 - 3.0 - - - - - - -
28/05:01am 8.3 S 15 29 1019.5 - 3.0 - - - - - - -
28/05:00am 8.2 S 15 21 1019.5 - 3.0 - - - - - - -
28/04:30am 8.1 S 13 26 1019.2 - 3.0 - - - - - - -
28/04:22am 8.4 S 15 26 1018.9 - 3.0 - - - - - - -
28/04:00am 7.9 S 15 21 1018.7 - 3.0 - - - - - - -
28/03:30am 7.4 S 13 18 1018.4 - 3.0 - - - - - - -
28/03:10am 7.4 S 15 25 1018.4 - 3.0 - - - - - - -
28/03:00am 7.5 S 14 21 1018.3 - 3.0 - - - - - - -
28/02:46am 8.0 S 15 27 1017.9 - 3.0 - - - - - - -
28/02:30am 8.0 S 16 23 1017.9 - 3.0 - - - - - - -
28/02:00am 9.2 SSW 22 35 1017.4 - 3.0 - - - - - - -
28/01:30am 8.5 SSW 23 37 1017.5 - 3.0 - - - - - - -
28/01:00am 9.2 SSW 23 33 1017.3 - 3.0 - - - - - - -
28/12:32am 9.2 S 25 37 1016.9 - 3.0 - - - - - - -
28/12:30am 9.0 S 24 37 1016.7 - 3.0 - - - - - - -
28/12:19am 8.3 S 19 29 1016.9 - 3.0 - - - - - - -
28/12:05am 8.5 SSW 21 28 1016.7 - 3.0 - - - - - - -
28/12:00am 9.3 SSW 22 33 1016.7 - 3.0 - - - - - - -
 
Date/Time
WST
Temp
°C
Wind Pressure Rain since
9am
mm
Weather Cloud Vis
km
Sea
Height
m
Swell
Dir  Spd
kts
Gust
kts
hPa Trend Height
m
Period
s
Dir
27/11:33pm 8.5 S 21 31 1016.3 - 3.0 - - - - - - -
27/11:30pm 8.4 S 22 29 1016.2 - 3.0 - - - - - - -
27/11:00pm 9.3 SSW 26 37 1015.8 - 3.0 - - - - - - -
27/10:30pm 7.8 SSW 29 39 1015.9 - 3.0 - - - - - - -
27/10:28pm 8.0 SSW 29 41 1015.9 - 3.0 - - - - - - -
27/10:25pm 8.3 SSW 31 46 1015.8 - 3.0 - - - - - - -
27/10:18pm 9.2 SSW 31 46 1015.4 - 3.0 - - - - - - -
27/10:17pm 9.3 SSW 30 46 1015.2 - 3.0 - - - - - - -
27/10:00pm 9.9 SSW 26 39 1015.4 - 3.0 - - - - - - -
27/09:30pm 10.1 SSW 25 40 1015.1 - 3.0 - - - - - - -
27/09:08pm 10.4 SW 25 35 1015.0 - 3.0 - - - - - - -
27/09:00pm 10.4 SW 26 33 1015.0 - 3.0 - - - - - - -
27/08:30pm 10.6 SW 25 35 1014.4 - 3.0 - - - - - - -
27/08:00pm 9.9 SW 29 39 1014.0 - 3.0 - - - - - - -
27/07:30pm 9.9 SSW 25 35 1013.5 - 3.0 - - - - - - -
27/07:00pm 8.8 SW 28 39 1013.0 - 3.0 - - - - - - -
27/06:43pm 9.7 SW 26 36 1012.6 - 2.6 - - - - - - -
27/06:30pm 10.8 SW 29 38 1012.3 - 2.6 - - - - - - -
27/06:00pm 10.6 SW 26 38 1012.0 - 2.6 - - - - - - -
27/05:30pm 11.5 SW 28 39 1011.5 - 2.6 - - - - - - -
27/05:03pm 12.2 SW 28 38 1011.1 - 2.6 - - - - - - -
27/05:00pm 12.2 SW 29 38 1011.0 - 2.6 - - - - - - -
27/04:30pm 12.8 SW 30 40 1010.5 - 2.6 - - - - - - -
27/04:00pm 13.1 SW 28 38 1010.3 - 2.6 - - - - - - -
27/03:30pm 13.1 SW 25 40 1010.0 - 2.6 - - - - - - -
27/03:00pm 12.4 SW 27 38 1009.7 - 2.6 Recent precip. - - - - - -

Other Formats:

Comma delimited format used in spreadsheet applications
http://www.bom.gov.au/fwo/IDW60701/IDW60701.94600.axf

JavaScript Object Notation format (JSON) in row-major order
http://www.bom.gov.au/fwo/IDW60701/IDW60701.94600.json